createdAt,value
2023-04-14T00:01:16.622Z,96.24
2023-04-14T00:03:45.728Z,96.36
2023-04-14T00:06:13.836Z,96.36
2023-04-14T00:08:42.448Z,96.50
2023-04-14T00:11:10.847Z,96.44
2023-04-14T00:13:39.585Z,96.93
2023-04-14T00:16:08.287Z,96.96
2023-04-14T00:18:36.300Z,96.76
2023-04-14T00:21:04.738Z,96.76
2023-04-14T00:23:32.956Z,96.66
2023-04-14T00:26:01.239Z,96.61
2023-04-14T00:28:29.184Z,96.78
2023-04-14T00:31:00.216Z,96.77
2023-04-14T00:33:31.124Z,96.79
2023-04-14T00:36:02.046Z,96.91
2023-04-14T00:38:30.545Z,97.26
2023-04-14T00:40:58.707Z,97.21
2023-04-14T00:43:28.230Z,97.43
2023-04-14T00:45:56.948Z,97.72
2023-04-14T00:51:17.589Z,97.68
2023-04-14T00:53:46.038Z,97.81
2023-04-14T00:56:14.880Z,97.61
2023-04-14T00:58:43.257Z,97.33
2023-04-14T01:01:11.767Z,97.01
2023-04-14T01:03:42.268Z,96.89
2023-04-14T01:08:53.310Z,96.34
2023-04-14T01:11:44.887Z,96.18
2023-04-14T01:14:17.672Z,96.09
2023-04-14T01:16:49.578Z,96.08
2023-04-14T01:19:37.066Z,96.08
2023-04-14T01:22:09.729Z,96.13
2023-04-14T01:24:43.463Z,96.24
2023-04-14T01:27:31.281Z,96.44
2023-04-14T01:30:37.230Z,96.47
2023-04-14T01:33:08.189Z,96.37
2023-04-14T01:35:50.892Z,96.27
2023-04-14T01:38:27.625Z,96.34
2023-04-14T01:41:05.706Z,96.43
2023-04-14T01:43:42.306Z,96.33
2023-04-14T01:46:15.011Z,96.41
2023-04-14T01:48:44.037Z,96.52
2023-04-14T01:51:13.724Z,96.56
2023-04-14T01:53:44.076Z,96.64
2023-04-14T01:56:15.602Z,96.60
2023-04-14T01:59:11.538Z,96.66
2023-04-14T02:01:41.657Z,96.82
2023-04-14T02:04:10.080Z,97.16
2023-04-14T02:06:39.416Z,97.31
2023-04-14T02:09:12.441Z,97.37
2023-04-14T02:11:43.770Z,97.39
2023-04-14T02:14:12.743Z,97.25
2023-04-14T02:16:43.969Z,96.82
2023-04-14T02:19:12.501Z,96.25
2023-04-14T02:21:42.870Z,96.08
2023-04-14T02:24:10.910Z,95.90
2023-04-14T02:26:44.280Z,95.79
2023-04-14T02:29:16.430Z,95.84
2023-04-14T02:31:49.107Z,95.80
2023-04-14T02:34:23.895Z,95.90
2023-04-14T02:36:58.782Z,95.98
2023-04-14T02:39:40.368Z,96.00
2023-04-14T02:42:15.086Z,95.94
2023-04-14T02:44:52.213Z,96.17
2023-04-14T02:47:31.827Z,96.68
2023-04-14T02:50:04.002Z,96.47
2023-04-14T02:52:35.521Z,96.61
2023-04-14T02:55:06.574Z,97.16
2023-04-14T02:57:35.556Z,97.02
2023-04-14T03:00:06.198Z,97.15
2023-04-14T03:02:39.948Z,97.48
2023-04-14T03:05:10.862Z,97.47
2023-04-14T03:07:50.793Z,97.28
2023-04-14T03:10:20.965Z,97.40
2023-04-14T03:12:50.682Z,97.63
2023-04-14T03:15:21.369Z,97.68
2023-04-14T03:17:54.382Z,97.77
2023-04-14T03:20:23.934Z,97.69
2023-04-14T03:23:01.133Z,97.77
2023-04-14T03:25:40.059Z,97.88
2023-04-14T03:28:15.962Z,97.94
2023-04-14T03:31:49.590Z,98.04
2023-04-14T03:34:32.020Z,98.00
2023-04-14T03:37:00.871Z,97.79
2023-04-14T03:39:36.185Z,97.84
2023-04-14T03:42:08.154Z,97.76
2023-04-14T03:44:39.974Z,97.94
2023-04-14T03:47:10.617Z,98.27
2023-04-14T03:49:43.402Z,98.18
2023-04-14T03:52:14.915Z,98.35
2023-04-14T03:54:45.964Z,98.27
2023-04-14T03:57:17.627Z,98.35
2023-04-14T03:59:51.030Z,98.28
2023-04-14T04:02:40.628Z,98.49
2023-04-14T04:05:10.963Z,99.34
2023-04-14T04:07:40.643Z,99.47
2023-04-14T04:10:09.788Z,99.13
2023-04-14T04:12:39.035Z,99.09
2023-04-14T04:15:09.814Z,99.02
2023-04-14T04:17:39.874Z,99.01
2023-04-14T04:20:12.680Z,98.98
2023-04-14T04:22:44.544Z,98.98
2023-04-14T04:25:13.201Z,99.31
2023-04-14T04:27:48.173Z,99.99
2023-04-14T04:30:20.381Z,99.99
2023-04-14T04:32:49.367Z,99.50
2023-04-14T04:35:18.602Z,99.26
2023-04-14T04:37:48.722Z,99.24
2023-04-14T04:40:17.147Z,99.27
2023-04-14T04:42:45.943Z,99.21
2023-04-14T04:45:41.940Z,99.54
2023-04-14T04:48:10.342Z,99.74
2023-04-14T04:50:38.272Z,99.65
2023-04-14T04:53:06.336Z,99.85
2023-04-14T04:55:39.972Z,99.52
2023-04-14T04:58:10.536Z,99.36
2023-04-14T05:00:43.473Z,99.42
2023-04-14T05:03:12.498Z,99.25
2023-04-14T05:05:41.672Z,99.27
2023-04-14T05:08:11.032Z,99.34
2023-04-14T05:10:44.652Z,99.27
2023-04-14T05:13:15.615Z,99.25
2023-04-14T05:18:33.941Z,99.13
2023-04-14T05:21:13.549Z,99.32
2023-04-14T05:23:44.889Z,95.41
2023-04-14T05:26:38.951Z,92.01
2023-04-14T05:29:03.359Z,90.29
2023-04-14T05:34:25.326Z,84.99
2023-04-14T05:36:54.764Z,83.19
2023-04-14T05:42:25.483Z,81.36
2023-04-14T05:45:03.686Z,79.02
2023-04-14T05:47:32.028Z,77.56
2023-04-14T05:50:00.473Z,76.62
2023-04-14T05:52:28.648Z,76.68
2023-04-14T05:54:56.843Z,76.09
2023-04-14T05:57:24.859Z,74.85
2023-04-14T05:59:58.191Z,73.93
2023-04-14T06:02:26.984Z,72.51
2023-04-14T06:04:57.104Z,73.68
2023-04-14T06:07:26.650Z,72.69
2023-04-14T06:09:55.720Z,73.06
2023-04-14T06:12:24.618Z,72.38
2023-04-14T06:14:52.897Z,73.48
2023-04-14T06:17:27.425Z,72.49
2023-04-14T06:22:52.108Z,71.76
2023-04-14T06:25:20.586Z,70.68
2023-04-14T06:27:58.605Z,69.76
2023-04-14T06:30:28.772Z,69.77
2023-04-14T06:32:57.885Z,69.84
2023-04-14T06:35:32.775Z,69.00
2023-04-14T06:38:02.385Z,68.67
2023-04-14T06:40:30.613Z,67.37
2023-04-14T06:45:43.275Z,67.31
2023-04-14T06:48:13.696Z,66.25
2023-04-14T06:50:42.680Z,65.17
2023-04-14T06:53:12.237Z,66.26
2023-04-14T06:55:43.452Z,66.95
2023-04-14T06:58:11.306Z,64.16
2023-04-14T07:00:39.342Z,64.47
2023-04-14T07:03:07.315Z,64.68
2023-04-14T07:05:35.306Z,65.35
2023-04-14T07:08:03.309Z,64.36
2023-04-14T07:10:31.878Z,63.83
2023-04-14T07:12:59.847Z,64.30
2023-04-14T07:15:31.205Z,64.02
2023-04-14T07:20:42.987Z,64.33
2023-04-14T07:23:11.829Z,62.84
2023-04-14T07:25:42.316Z,62.11
2023-04-14T07:28:14.717Z,61.28
2023-04-14T07:30:46.420Z,61.29
2023-04-14T07:38:53.651Z,62.32
2023-04-14T07:41:21.827Z,62.21
2023-04-14T07:43:50.187Z,60.15
2023-04-14T07:46:21.824Z,59.73
2023-04-14T07:48:52.634Z,59.36
2023-04-14T07:51:21.158Z,58.97
2023-04-14T07:53:49.092Z,59.11
2023-04-14T07:56:17.372Z,57.57
2023-04-14T07:58:45.817Z,58.06
2023-04-14T08:01:14.409Z,58.00
2023-04-14T08:03:45.146Z,57.05
2023-04-14T08:06:14.113Z,57.63
2023-04-14T08:08:43.040Z,57.15
2023-04-14T08:11:11.276Z,59.63
2023-04-14T08:13:39.430Z,59.24
2023-04-14T08:16:07.423Z,59.06
2023-04-14T08:18:36.681Z,58.43
2023-04-14T08:21:04.731Z,59.91
2023-04-14T08:23:32.997Z,59.57
2023-04-14T08:26:03.230Z,61.07
2023-04-14T08:28:31.311Z,60.90
2023-04-14T08:31:00.528Z,60.25
2023-04-14T08:33:28.884Z,60.87
2023-04-14T08:35:59.758Z,60.76
2023-04-14T08:38:30.218Z,61.56
2023-04-14T08:46:27.552Z,62.05
2023-04-14T08:49:08.224Z,62.17
2023-04-14T08:51:42.969Z,60.21
2023-04-14T08:54:11.857Z,59.98
2023-04-14T08:56:41.996Z,61.67
2023-04-14T08:59:11.746Z,60.96
2023-04-14T09:01:40.360Z,61.57
2023-04-14T09:04:09.880Z,60.79
2023-04-14T09:06:38.163Z,61.48
2023-04-14T09:09:10.869Z,59.64
2023-04-14T09:11:38.800Z,61.25
2023-04-14T09:14:07.583Z,61.05
2023-04-14T09:16:36.112Z,61.56
2023-04-14T09:19:06.940Z,58.61
2023-04-14T09:21:53.768Z,57.96
2023-04-14T09:24:26.184Z,58.97
2023-04-14T09:26:54.795Z,58.85
2023-04-14T09:29:23.153Z,58.55
2023-04-14T09:31:51.800Z,57.62
2023-04-14T09:34:21.516Z,57.15
2023-04-14T09:37:07.063Z,58.88
2023-04-14T09:39:36.943Z,56.26
2023-04-14T09:42:05.377Z,57.35
2023-04-14T09:44:33.502Z,56.97
2023-04-14T09:47:09.465Z,55.93
2023-04-14T09:49:38.190Z,56.14
2023-04-14T09:52:09.189Z,55.93
2023-04-14T09:54:40.018Z,54.61
2023-04-14T09:57:08.592Z,54.39
2023-04-14T09:59:40.562Z,54.87
2023-04-14T10:02:10.242Z,57.04
2023-04-14T10:04:41.049Z,54.65
2023-04-14T10:07:09.184Z,56.12
2023-04-14T10:09:38.692Z,56.28
2023-04-14T10:12:15.584Z,51.55
2023-04-14T10:14:44.491Z,53.25
2023-04-14T10:17:14.852Z,53.07
2023-04-14T10:19:43.146Z,54.16
2023-04-14T10:22:11.562Z,52.89
2023-04-14T10:24:41.999Z,53.46
2023-04-14T10:27:10.862Z,52.56
2023-04-14T10:29:42.101Z,53.31
2023-04-14T10:32:13.744Z,54.44
2023-04-14T10:35:00.170Z,53.79
2023-04-14T10:37:28.221Z,54.44
2023-04-14T10:40:00.292Z,53.73
2023-04-14T10:42:32.882Z,55.12
2023-04-14T10:45:08.703Z,55.88
2023-04-14T10:47:41.821Z,56.62
2023-04-14T10:50:14.043Z,55.57
2023-04-14T10:52:55.772Z,54.67
2023-04-14T10:55:28.167Z,54.76
2023-04-14T10:58:06.599Z,53.56
2023-04-14T11:03:20.810Z,52.44
2023-04-14T11:05:53.259Z,52.65
2023-04-14T11:11:17.903Z,53.74
2023-04-14T11:14:06.349Z,52.93
2023-04-14T11:16:34.570Z,53.16
2023-04-14T11:19:02.918Z,52.70
2023-04-14T11:21:31.622Z,53.47
2023-04-14T11:24:04.172Z,51.76
2023-04-14T11:26:34.187Z,51.24
2023-04-14T11:29:10.960Z,52.22
2023-04-14T11:31:39.258Z,52.96
2023-04-14T11:34:07.448Z,53.23
2023-04-14T11:36:37.382Z,51.78
2023-04-14T11:39:11.660Z,50.75
2023-04-14T11:41:39.849Z,52.25
2023-04-14T11:44:07.784Z,51.65
2023-04-14T11:46:38.425Z,53.30
2023-04-14T11:49:07.682Z,51.84
2023-04-14T11:51:35.911Z,53.30
2023-04-14T11:54:03.844Z,53.16
2023-04-14T11:56:32.775Z,53.21
2023-04-14T11:59:03.143Z,52.37
2023-04-14T12:01:32.095Z,51.43
2023-04-14T12:04:01.482Z,53.66
2023-04-14T12:06:35.182Z,52.89
2023-04-14T12:09:08.360Z,51.97
2023-04-14T12:11:36.447Z,53.29
2023-04-14T12:14:05.084Z,51.60
2023-04-14T12:16:33.329Z,52.76
2023-04-14T12:19:02.072Z,52.50
2023-04-14T12:21:30.816Z,51.21
2023-04-14T12:24:03.456Z,52.42
2023-04-14T12:29:19.795Z,52.09
2023-04-14T12:31:48.177Z,51.75
2023-04-14T12:34:18.628Z,51.02
2023-04-14T12:36:54.902Z,49.25
2023-04-14T12:39:25.886Z,50.94
2023-04-14T12:41:54.177Z,51.51
2023-04-14T12:44:24.346Z,50.66
2023-04-14T12:46:54.869Z,51.04
2023-04-14T12:49:57.183Z,50.43
2023-04-14T12:58:14.574Z,50.86
2023-04-14T13:00:51.055Z,50.34
2023-04-14T13:03:19.834Z,50.64
2023-04-14T13:05:48.794Z,48.40
2023-04-14T13:08:36.886Z,49.13
2023-04-14T13:11:05.316Z,50.79
2023-04-14T13:13:33.483Z,48.90
2023-04-14T13:16:13.637Z,48.13
2023-04-14T13:18:47.939Z,48.32
2023-04-14T13:21:16.875Z,49.37
2023-04-14T13:23:45.267Z,48.19
2023-04-14T13:26:20.933Z,47.49
2023-04-14T13:28:53.076Z,49.11
2023-04-14T13:31:21.325Z,48.93
2023-04-14T13:33:49.725Z,48.26
2023-04-14T13:39:00.451Z,49.78
2023-04-14T13:41:29.164Z,49.45
2023-04-14T13:44:06.883Z,50.04
2023-04-14T13:46:40.957Z,49.12
2023-04-14T13:49:14.485Z,49.09
2023-04-14T13:51:42.546Z,49.96
2023-04-14T13:54:10.900Z,50.13
2023-04-14T13:56:41.158Z,48.96
2023-04-14T13:59:17.412Z,50.33
2023-04-14T14:01:45.731Z,49.20
2023-04-14T14:04:15.269Z,50.48
2023-04-14T14:06:43.872Z,50.84
2023-04-14T14:09:11.948Z,51.04
2023-04-14T14:11:44.320Z,49.76
2023-04-14T14:14:13.069Z,48.90
2023-04-14T14:16:41.526Z,50.23
2023-04-14T14:19:11.191Z,49.54
2023-04-14T14:21:39.685Z,49.30
2023-04-14T14:24:08.297Z,50.13
2023-04-14T14:26:36.423Z,48.34
2023-04-14T14:29:04.503Z,49.25
2023-04-14T14:31:33.376Z,50.50
2023-04-14T14:34:01.865Z,48.94
2023-04-14T14:36:30.770Z,48.53
2023-04-14T14:38:58.939Z,48.93
2023-04-14T14:41:27.281Z,50.19
2023-04-14T14:43:56.059Z,49.53
2023-04-14T14:46:24.798Z,49.24
2023-04-14T14:48:53.290Z,48.08
2023-04-14T14:51:21.964Z,48.12
2023-04-14T14:53:57.146Z,47.68
2023-04-14T14:56:29.992Z,47.19
2023-04-14T14:59:03.537Z,48.77
2023-04-14T15:01:33.368Z,47.86
2023-04-14T15:04:06.914Z,47.09
2023-04-14T15:06:36.006Z,47.96
2023-04-14T15:09:05.567Z,47.96
2023-04-14T15:11:33.848Z,47.60
2023-04-14T15:16:48.103Z,48.24
2023-04-14T15:19:19.394Z,48.91
2023-04-14T15:21:53.902Z,47.73
2023-04-14T15:24:24.153Z,46.92
2023-04-14T15:26:52.407Z,47.46
2023-04-14T15:29:25.130Z,47.13
2023-04-14T15:31:53.791Z,46.50
2023-04-14T15:34:23.437Z,46.53
2023-04-14T15:36:51.478Z,46.69
2023-04-14T15:39:19.547Z,46.15
2023-04-14T15:41:50.334Z,46.26
2023-04-14T15:44:19.395Z,47.21
2023-04-14T15:46:47.753Z,45.76
2023-04-14T15:49:16.452Z,45.48
2023-04-14T15:51:44.600Z,45.15
2023-04-14T15:54:12.787Z,45.81
2023-04-14T15:56:40.775Z,45.57
2023-04-14T15:59:09.216Z,44.10
2023-04-14T16:01:37.677Z,44.24
2023-04-14T16:04:06.470Z,44.79
2023-04-14T16:06:39.179Z,45.15
2023-04-14T16:09:07.457Z,44.42
2023-04-14T16:11:36.443Z,45.23
2023-04-14T16:14:05.165Z,45.26
2023-04-14T16:16:34.145Z,45.00
2023-04-14T16:19:02.756Z,45.15
2023-04-14T16:21:31.948Z,46.10
2023-04-14T16:24:00.799Z,46.13
2023-04-14T16:26:28.866Z,45.05
2023-04-14T16:28:57.187Z,43.76
2023-04-14T16:31:25.239Z,45.03
2023-04-14T16:33:53.604Z,45.60
2023-04-14T16:36:25.278Z,45.34
2023-04-14T16:38:54.211Z,45.50
2023-04-14T16:41:23.253Z,46.26
2023-04-14T16:43:51.535Z,46.13
2023-04-14T16:46:23.246Z,47.28
2023-04-14T16:48:52.590Z,47.75
2023-04-14T16:51:23.241Z,47.58
2023-04-14T16:53:52.228Z,47.70
2023-04-14T16:56:21.097Z,47.99
2023-04-14T16:58:49.982Z,48.43
2023-04-14T17:01:18.120Z,47.03
2023-04-14T17:03:46.281Z,46.59
2023-04-14T17:06:14.761Z,47.50
2023-04-14T17:08:42.750Z,47.00
2023-04-14T17:11:10.835Z,47.77
2023-04-14T17:13:40.935Z,48.68
2023-04-14T17:16:12.533Z,48.50
2023-04-14T17:18:43.081Z,49.62
2023-04-14T17:21:14.590Z,50.78
2023-04-14T17:23:46.444Z,51.24
2023-04-14T17:26:18.078Z,51.74
2023-04-14T17:28:46.613Z,50.77
2023-04-14T17:31:16.354Z,50.93
2023-04-14T17:33:46.394Z,51.52
2023-04-14T17:36:16.597Z,51.02
2023-04-14T17:38:45.957Z,52.22
2023-04-14T17:41:14.430Z,52.24
2023-04-14T17:43:42.621Z,52.98
2023-04-14T17:46:16.557Z,53.17
2023-04-14T17:48:45.058Z,54.25
2023-04-14T17:51:13.240Z,53.97
2023-04-14T17:53:55.084Z,54.93
2023-04-14T17:56:25.512Z,55.43
2023-04-14T17:58:53.766Z,55.36
2023-04-14T18:01:22.698Z,55.60
2023-04-14T18:03:50.834Z,56.06
2023-04-14T18:06:20.038Z,56.43
2023-04-14T18:08:48.148Z,56.56
2023-04-14T18:11:17.485Z,56.82
2023-04-14T18:13:46.299Z,56.97
2023-04-14T18:16:18.466Z,57.69
2023-04-14T18:18:51.304Z,58.26
2023-04-14T18:21:22.854Z,58.73
2023-04-14T18:26:26.822Z,59.37
2023-04-14T18:29:05.823Z,59.53
2023-04-14T18:31:34.608Z,59.98
2023-04-14T18:34:04.758Z,60.05
2023-04-14T18:36:46.100Z,60.54
2023-04-14T18:39:17.768Z,60.63
2023-04-14T18:41:48.121Z,60.67
2023-04-14T18:47:00.213Z,61.40
2023-04-14T18:49:31.916Z,61.37
2023-04-14T18:57:33.858Z,62.81
2023-04-14T19:00:03.349Z,63.46
2023-04-14T19:02:32.150Z,63.57
2023-04-14T19:05:02.041Z,64.81
2023-04-14T19:07:34.152Z,65.34
2023-04-14T19:10:05.250Z,65.55
2023-04-14T19:12:40.321Z,65.45
2023-04-14T19:15:09.508Z,65.34
2023-04-14T19:17:39.561Z,64.88
2023-04-14T19:23:01.374Z,65.78
2023-04-14T19:25:31.220Z,66.06
2023-04-14T19:28:01.758Z,66.13
2023-04-14T19:30:31.852Z,66.21
2023-04-14T19:41:13.198Z,67.51
2023-04-14T19:43:43.107Z,67.72
2023-04-14T19:46:16.410Z,68.11
2023-04-14T19:48:53.902Z,67.83
2023-04-14T19:51:23.347Z,68.06
2023-04-14T19:53:55.865Z,68.37
2023-04-14T19:56:25.905Z,68.76
2023-04-14T19:58:58.060Z,69.57
2023-04-14T20:01:28.855Z,68.75
2023-04-14T20:04:08.155Z,69.07
2023-04-14T20:06:41.319Z,69.95
2023-04-14T20:09:10.119Z,71.06
2023-04-14T20:11:38.458Z,71.50
2023-04-14T20:14:06.720Z,71.88
2023-04-14T20:16:35.548Z,72.34
2023-04-14T20:19:04.163Z,72.66
2023-04-14T20:21:33.020Z,72.57
2023-04-14T20:24:03.275Z,72.59
2023-04-14T20:26:32.888Z,72.58
2023-04-14T20:29:02.051Z,72.89
2023-04-14T20:31:31.106Z,73.01
2023-04-14T20:34:03.519Z,72.97
2023-04-14T20:36:36.466Z,72.95
2023-04-14T20:39:06.292Z,73.22
2023-04-14T20:41:36.451Z,73.44
2023-04-14T20:44:05.054Z,74.08
2023-04-14T20:46:33.804Z,74.73
2023-04-14T20:49:05.068Z,75.24
2023-04-14T20:51:34.315Z,75.45
2023-04-14T20:54:02.937Z,75.32
2023-04-14T20:56:32.523Z,75.52
2023-04-14T20:59:01.942Z,75.47
2023-04-14T21:01:42.796Z,75.43
2023-04-14T21:04:12.434Z,75.87
2023-04-14T21:06:41.116Z,75.87
2023-04-14T21:09:10.404Z,76.02
2023-04-14T21:11:39.795Z,76.36
2023-04-14T21:15:40.896Z,76.95
2023-04-14T21:16:58.019Z,77.21
2023-04-14T21:19:27.683Z,77.34
2023-04-14T21:21:56.383Z,77.85
2023-04-14T21:24:25.351Z,78.11
2023-04-14T21:26:57.281Z,78.44
2023-04-14T21:29:25.486Z,78.61
2023-04-14T21:31:53.923Z,78.80
2023-04-14T21:34:22.155Z,78.88
2023-04-14T21:36:50.078Z,79.11
2023-04-14T21:39:20.294Z,79.19
2023-04-14T21:41:48.628Z,79.21
2023-04-14T21:44:17.108Z,79.25
2023-04-14T21:46:45.411Z,79.32
2023-04-14T21:49:14.785Z,79.38
2023-04-14T21:51:44.132Z,79.56
2023-04-14T21:54:13.263Z,79.69
2023-04-14T21:56:41.907Z,79.87
2023-04-14T21:59:10.114Z,79.87
2023-04-14T22:01:38.322Z,79.89
2023-04-14T22:04:06.544Z,79.88
2023-04-14T22:06:35.431Z,79.85
2023-04-14T22:09:03.937Z,79.95
2023-04-14T22:11:32.964Z,80.09
2023-04-14T22:14:02.789Z,80.25
2023-04-14T22:16:30.911Z,80.44
2023-04-14T22:18:58.941Z,80.69
2023-04-14T22:21:29.770Z,80.82
2023-04-14T22:23:58.094Z,81.07
2023-04-14T22:26:26.153Z,81.23
2023-04-14T22:28:54.378Z,81.54
2023-04-14T22:31:24.713Z,81.55
2023-04-14T22:33:52.744Z,81.51
2023-04-14T22:36:20.896Z,81.75
2023-04-14T22:38:49.033Z,82.12
2023-04-14T22:41:18.462Z,82.29
2023-04-14T22:43:46.423Z,82.53
2023-04-14T22:46:15.823Z,82.43
2023-04-14T22:48:44.319Z,82.25
2023-04-14T22:51:12.736Z,82.18
2023-04-14T22:53:41.199Z,82.20
2023-04-14T22:56:09.154Z,82.38
2023-04-14T22:58:39.910Z,82.48
2023-04-14T23:01:21.307Z,82.60
2023-04-14T23:03:52.584Z,82.78
2023-04-14T23:06:22.877Z,82.87
2023-04-14T23:08:52.216Z,83.25
2023-04-14T23:11:21.175Z,83.17
2023-04-14T23:13:50.997Z,83.05
2023-04-14T23:16:20.141Z,83.38
2023-04-14T23:18:54.357Z,83.75
2023-04-14T23:21:22.568Z,84.09
2023-04-14T23:23:51.206Z,84.06
2023-04-14T23:26:20.242Z,83.83
2023-04-14T23:28:48.417Z,83.48
2023-04-14T23:31:17.506Z,83.40
2023-04-14T23:33:48.538Z,83.46
2023-04-14T23:36:16.702Z,83.57
2023-04-14T23:38:44.866Z,83.46
2023-04-14T23:41:12.911Z,83.26
2023-04-14T23:43:40.821Z,83.26
2023-04-14T23:46:08.902Z,83.45
2023-04-14T23:48:36.768Z,83.75
2023-04-14T23:51:19.208Z,84.16
2023-04-14T23:53:51.991Z,84.37
2023-04-14T23:56:20.300Z,84.43
2023-04-14T23:58:48.613Z,84.45
